Morinville, Canada
Current Conditions -  °F | °C
As of 8:00 AM on Wednesday 22 Oct 2014 (Local Time) from CYED Reporting Station
Clear Clear  
Wind Chill: -5°   Ceiling: Unl
Heat Index: -1°   Visibility: 5mi
Dew Point: -2°   Wind: 7mph
Humidity: 93%   Direction: 140°SE
Pressure: 29.66"   Gusts: NA
Location:  53.8°N, 113.65°W
Report Text: CYED 221400Z AUTO 14006KT 5SM CLR M01/M02 A2966 RMK ICG SLP070
Loading
Personal Weather Stations






























Interactive Weather Map
Tropical Storm Tracking
New forecast layout! Learn more

10-Day Weather Forecast

Advertisements
Track Severe Weather on mobile